createdAt,value
2023-08-26T00:00:46.897Z,11.45
2023-08-26T00:03:15.620Z,11.75
2023-08-26T00:05:44.650Z,10.60
2023-08-26T00:08:12.598Z,8.95
2023-08-26T00:10:40.879Z,9.25
2023-08-26T00:13:08.804Z,8.85
2023-08-26T00:15:36.818Z,9.88
2023-08-26T00:18:10.387Z,8.63
2023-08-26T00:20:39.642Z,9.63
2023-08-26T00:23:08.106Z,10.45
2023-08-26T00:25:36.085Z,9.02
2023-08-26T00:28:04.563Z,10.95
2023-08-26T00:30:32.907Z,11.02
2023-08-26T00:33:01.028Z,13.10
2023-08-26T00:35:29.073Z,11.88
2023-08-26T00:37:57.823Z,8.30
2023-08-26T00:40:26.101Z,10.48
2023-08-26T00:42:56.320Z,11.25
2023-08-26T00:45:24.670Z,8.27
2023-08-26T00:47:52.891Z,9.48
2023-08-26T00:50:21.918Z,13.55
2023-08-26T00:52:50.246Z,9.82
2023-08-26T00:55:18.528Z,11.07
2023-08-26T00:57:46.849Z,12.18
2023-08-26T01:00:15.842Z,10.98
2023-08-26T01:02:44.245Z,10.18
2023-08-26T01:05:12.316Z,12.00
2023-08-26T01:07:41.172Z,9.88
2023-08-26T01:10:09.873Z,13.40
2023-08-26T01:13:01.198Z,13.70
2023-08-26T01:15:32.378Z,11.98
2023-08-26T01:18:07.121Z,11.50
2023-08-26T01:20:36.605Z,9.35
2023-08-26T01:23:07.645Z,12.68
2023-08-26T01:25:36.017Z,9.73
2023-08-26T01:28:04.028Z,8.70
2023-08-26T01:30:32.834Z,8.55
2023-08-26T01:33:22.844Z,9.63
2023-08-26T01:35:58.763Z,7.82
2023-08-26T01:38:28.306Z,9.10
2023-08-26T01:40:57.661Z,8.57
2023-08-26T01:43:26.732Z,8.18
2023-08-26T01:45:55.031Z,10.27
2023-08-26T01:48:23.049Z,7.90
2023-08-26T01:50:50.961Z,7.90
2023-08-26T01:53:19.741Z,8.35
2023-08-26T01:55:47.743Z,11.98
2023-08-26T01:58:15.971Z,9.52
2023-08-26T02:00:44.415Z,9.50
2023-08-26T02:03:12.889Z,8.82
2023-08-26T02:05:40.693Z,7.40
2023-08-26T02:08:09.262Z,8.77
2023-08-26T02:10:37.456Z,9.15
2023-08-26T02:13:05.387Z,7.50
2023-08-26T02:15:35.960Z,6.75
2023-08-26T02:18:04.655Z,6.85
2023-08-26T02:20:32.606Z,7.15
2023-08-26T02:23:00.507Z,6.82
2023-08-26T02:25:30.044Z,6.70
2023-08-26T02:27:58.359Z,7.75
2023-08-26T02:30:26.653Z,7.60
2023-08-26T02:32:56.160Z,7.95
2023-08-26T02:35:24.571Z,6.70
2023-08-26T02:37:52.479Z,7.68
2023-08-26T02:40:20.803Z,7.30
2023-08-26T02:42:48.730Z,9.30
2023-08-26T02:45:16.697Z,8.00
2023-08-26T02:47:47.679Z,8.55
2023-08-26T02:50:18.092Z,7.07
2023-08-26T02:52:46.489Z,7.62
2023-08-26T02:55:14.450Z,7.90
2023-08-26T02:57:42.480Z,9.25
2023-08-26T03:00:11.526Z,9.35
2023-08-26T03:02:39.868Z,11.18
2023-08-26T03:05:09.263Z,8.02
2023-08-26T03:07:37.765Z,8.85
2023-08-26T03:10:06.310Z,11.30
2023-08-26T03:12:34.895Z,10.35
2023-08-26T03:15:04.029Z,9.75
2023-08-26T03:17:32.787Z,9.35
2023-08-26T03:20:00.939Z,7.60
2023-08-26T03:22:35.870Z,7.70
2023-08-26T03:25:09.221Z,7.37
2023-08-26T03:27:46.942Z,8.05
2023-08-26T03:30:15.016Z,7.47
2023-08-26T03:32:43.344Z,7.07
2023-08-26T03:35:11.329Z,6.28
2023-08-26T03:37:39.307Z,6.68
2023-08-26T03:40:10.410Z,4.85
2023-08-26T03:42:49.924Z,8.77
2023-08-26T03:48:11.728Z,5.07
2023-08-26T03:50:50.993Z,7.28
2023-08-26T03:53:24.724Z,6.22
2023-08-26T03:55:53.089Z,6.25
2023-08-26T03:58:21.036Z,4.65
2023-08-26T04:00:49.561Z,5.80
2023-08-26T04:03:17.987Z,6.35
2023-08-26T04:05:46.363Z,4.45
2023-08-26T04:08:14.277Z,5.93
2023-08-26T04:10:42.234Z,5.45
2023-08-26T04:13:22.060Z,7.25
2023-08-26T04:15:50.093Z,5.47
2023-08-26T04:18:18.209Z,7.10
2023-08-26T04:20:46.161Z,5.62
2023-08-26T04:23:13.973Z,6.22
2023-08-26T04:25:43.017Z,6.68
2023-08-26T04:28:13.277Z,4.85
2023-08-26T04:30:42.057Z,5.37
2023-08-26T04:33:10.642Z,5.85
2023-08-26T04:35:38.826Z,6.32
2023-08-26T04:38:06.789Z,3.80
2023-08-26T04:40:35.716Z,5.57
2023-08-26T04:43:05.198Z,5.68
2023-08-26T04:45:33.077Z,3.90
2023-08-26T04:48:01.514Z,3.80
2023-08-26T04:50:30.558Z,4.40
2023-08-26T04:52:58.996Z,4.03
2023-08-26T04:55:27.304Z,4.75
2023-08-26T04:57:55.442Z,5.97
2023-08-26T05:00:24.026Z,4.35
2023-08-26T05:02:52.606Z,6.78
2023-08-26T05:05:21.055Z,5.75
2023-08-26T05:07:49.185Z,5.18
2023-08-26T05:10:17.358Z,5.07
2023-08-26T05:12:45.237Z,3.58
2023-08-26T05:15:13.322Z,4.40
2023-08-26T05:17:42.475Z,4.37
2023-08-26T05:20:10.784Z,5.90
2023-08-26T05:22:50.978Z,4.78
2023-08-26T05:25:20.362Z,4.70
2023-08-26T05:27:49.468Z,3.60
2023-08-26T05:30:19.594Z,3.03
2023-08-26T05:32:49.331Z,5.35
2023-08-26T05:35:17.411Z,3.58
2023-08-26T05:37:46.680Z,5.82
2023-08-26T05:40:16.218Z,4.37
2023-08-26T05:42:44.178Z,3.87
2023-08-26T05:45:12.062Z,4.85
2023-08-26T05:47:40.484Z,4.47
2023-08-26T05:50:08.785Z,4.03
2023-08-26T05:52:36.705Z,5.50
2023-08-26T05:55:05.268Z,3.33
2023-08-26T05:57:33.261Z,3.55
2023-08-26T06:00:01.577Z,3.12
2023-08-26T06:02:33.819Z,3.37
2023-08-26T06:05:03.667Z,4.65
2023-08-26T06:07:31.730Z,3.47
2023-08-26T06:09:59.782Z,4.57
2023-08-26T06:12:28.136Z,2.95
2023-08-26T06:14:56.680Z,3.40
2023-08-26T06:17:24.670Z,3.60
2023-08-26T06:19:53.190Z,4.18
2023-08-26T06:22:21.388Z,3.95
2023-08-26T06:24:49.292Z,3.40
2023-08-26T06:27:17.776Z,3.30
2023-08-26T06:29:56.879Z,2.53
2023-08-26T06:32:25.527Z,3.00
2023-08-26T06:34:54.793Z,2.50
2023-08-26T06:37:22.818Z,2.47
2023-08-26T06:39:51.536Z,4.00
2023-08-26T06:42:19.734Z,3.83
2023-08-26T06:44:52.747Z,3.12
2023-08-26T06:47:22.114Z,3.12
2023-08-26T06:49:50.599Z,3.30
2023-08-26T06:52:18.520Z,3.10
2023-08-26T06:54:47.059Z,2.85
2023-08-26T06:57:15.045Z,3.28
2023-08-26T07:02:32.095Z,3.20
2023-08-26T07:05:00.209Z,3.40
2023-08-26T07:07:28.792Z,3.05
2023-08-26T07:09:56.856Z,5.90
2023-08-26T07:12:24.827Z,2.55
2023-08-26T07:14:53.419Z,2.92
2023-08-26T07:17:21.448Z,2.28
2023-08-26T07:19:49.442Z,2.03
2023-08-26T07:22:20.339Z,2.50
2023-08-26T07:24:55.330Z,3.00
2023-08-26T07:27:24.818Z,2.42
2023-08-26T07:29:52.849Z,2.25
2023-08-26T07:32:20.985Z,2.42
2023-08-26T07:34:52.634Z,2.10
2023-08-26T07:37:20.537Z,2.22
2023-08-26T07:39:51.150Z,2.55
2023-08-26T07:42:19.565Z,2.20
2023-08-26T07:44:47.869Z,2.22
2023-08-26T07:50:02.065Z,2.35
2023-08-26T07:52:31.539Z,2.50
2023-08-26T07:54:59.431Z,2.35
2023-08-26T07:57:27.778Z,2.22
2023-08-26T07:59:55.648Z,2.03
2023-08-26T08:02:23.946Z,2.62
2023-08-26T08:04:52.614Z,2.22
2023-08-26T08:07:23.349Z,2.25
2023-08-26T08:09:51.445Z,2.12
2023-08-26T08:12:19.951Z,2.50
2023-08-26T08:14:47.967Z,2.35
2023-08-26T08:17:15.927Z,2.97
2023-08-26T08:19:47.165Z,2.67
2023-08-26T08:22:19.962Z,2.40
2023-08-26T08:24:49.244Z,2.22
2023-08-26T08:27:17.425Z,2.20
2023-08-26T08:29:46.307Z,2.20
2023-08-26T08:32:14.696Z,2.17
2023-08-26T08:34:42.861Z,2.60
2023-08-26T08:37:10.977Z,2.22
2023-08-26T08:39:39.676Z,2.00
2023-08-26T08:42:11.213Z,1.87
2023-08-26T08:44:43.502Z,1.80
2023-08-26T08:47:12.390Z,2.00
2023-08-26T08:49:43.018Z,2.12
2023-08-26T08:52:12.926Z,2.03
2023-08-26T08:54:42.422Z,2.75
2023-08-26T08:57:14.597Z,2.58
2023-08-26T08:59:44.204Z,2.05
2023-08-26T09:02:13.577Z,2.30
2023-08-26T09:04:44.576Z,1.98
2023-08-26T09:07:17.552Z,2.12
2023-08-26T09:09:56.553Z,2.17
2023-08-26T09:12:32.460Z,2.20
2023-08-26T09:15:00.811Z,2.92
2023-08-26T09:17:34.272Z,2.80
2023-08-26T09:20:04.340Z,2.45
2023-08-26T09:22:36.177Z,2.20
2023-08-26T09:25:06.843Z,2.10
2023-08-26T09:27:42.108Z,1.90
2023-08-26T09:30:10.911Z,1.70
2023-08-26T09:32:42.950Z,1.70
2023-08-26T09:35:16.662Z,1.62
2023-08-26T09:37:49.729Z,1.50
2023-08-26T09:40:24.884Z,2.17
2023-08-26T09:42:54.506Z,2.85
2023-08-26T09:45:23.185Z,1.87
2023-08-26T09:47:53.256Z,2.53
2023-08-26T09:50:34.605Z,1.92
2023-08-26T09:53:03.690Z,2.53
2023-08-26T09:55:34.161Z,2.97
2023-08-26T09:58:02.590Z,3.45
2023-08-26T10:00:35.164Z,4.12
2023-08-26T10:03:07.906Z,3.53
2023-08-26T10:05:41.495Z,3.30
2023-08-26T10:08:12.044Z,2.95
2023-08-26T10:10:54.429Z,3.58
2023-08-26T10:16:00.265Z,2.23
2023-08-26T10:18:56.212Z,2.53
2023-08-26T10:21:25.589Z,1.95
2023-08-26T10:23:54.236Z,2.50
2023-08-26T10:26:22.793Z,2.42
2023-08-26T10:28:51.924Z,2.35
2023-08-26T10:31:21.220Z,2.40
2023-08-26T10:34:15.989Z,1.70
2023-08-26T10:36:51.083Z,2.35
2023-08-26T10:39:22.912Z,1.98
2023-08-26T10:42:23.366Z,2.20
2023-08-26T10:45:00.798Z,2.75
2023-08-26T10:47:46.765Z,2.72
2023-08-26T10:50:23.933Z,3.83
2023-08-26T10:53:16.041Z,3.30
2023-08-26T10:55:44.773Z,5.05
2023-08-26T10:58:18.228Z,5.72
2023-08-26T11:00:49.992Z,5.47
2023-08-26T11:03:21.975Z,7.57
2023-08-26T11:06:12.913Z,6.32
2023-08-26T11:08:55.149Z,4.20
2023-08-26T11:11:23.748Z,3.40
2023-08-26T11:13:52.918Z,3.47
2023-08-26T11:16:23.896Z,2.80
2023-08-26T11:18:56.743Z,2.83
2023-08-26T11:21:25.675Z,2.78
2023-08-26T11:23:58.454Z,2.50
2023-08-26T11:26:27.278Z,2.78
2023-08-26T11:28:56.068Z,2.78
2023-08-26T11:31:26.557Z,8.20
2023-08-26T11:33:56.524Z,5.93
2023-08-26T11:36:24.944Z,4.78
2023-08-26T11:38:54.280Z,2.85
2023-08-26T11:41:23.746Z,1.95
2023-08-26T11:43:52.303Z,2.62
2023-08-26T11:46:21.015Z,2.17
2023-08-26T11:48:49.825Z,2.75
2023-08-26T11:51:18.048Z,2.83
2023-08-26T11:53:46.074Z,3.08
2023-08-26T11:56:14.459Z,3.20
2023-08-26T11:58:42.801Z,3.00
2023-08-26T12:01:15.088Z,2.50
2023-08-26T12:03:45.755Z,2.60
2023-08-26T12:06:16.351Z,2.17
2023-08-26T12:08:53.182Z,2.22
2023-08-26T12:11:22.400Z,3.30
2023-08-26T12:13:51.738Z,3.12
2023-08-26T12:16:20.034Z,2.95
2023-08-26T12:18:49.870Z,3.30
2023-08-26T12:21:18.874Z,3.00
2023-08-26T12:23:48.011Z,2.95
2023-08-26T12:26:16.470Z,2.60
2023-08-26T12:28:45.320Z,2.70
2023-08-26T12:31:14.735Z,2.65
2023-08-26T12:33:58.115Z,2.65
2023-08-26T12:36:30.682Z,2.58
2023-08-26T12:39:02.575Z,4.20
2023-08-26T12:44:02.759Z,4.62
2023-08-26T12:46:32.102Z,4.25
2023-08-26T12:49:01.602Z,4.53
2023-08-26T12:51:32.085Z,4.00
2023-08-26T12:54:01.522Z,5.47
2023-08-26T12:56:30.236Z,6.75
2023-08-26T12:58:58.591Z,16.15
2023-08-26T13:01:27.697Z,10.88
2023-08-26T13:03:58.709Z,12.10
2023-08-26T13:06:28.748Z,9.52
2023-08-26T13:08:57.296Z,6.93
2023-08-26T13:11:25.805Z,5.93
2023-08-26T13:13:55.089Z,4.28
2023-08-26T13:16:23.672Z,4.85
2023-08-26T13:18:52.440Z,5.18
2023-08-26T13:21:21.570Z,4.03
2023-08-26T13:23:50.163Z,3.45
2023-08-26T13:26:19.124Z,3.22
2023-08-26T13:28:48.419Z,2.78
2023-08-26T13:31:17.063Z,2.80
2023-08-26T13:33:45.968Z,3.17
2023-08-26T13:36:15.289Z,5.70
2023-08-26T13:38:43.848Z,4.25
2023-08-26T13:41:12.270Z,3.33
2023-08-26T13:43:40.920Z,2.80
2023-08-26T13:46:09.207Z,2.85
2023-08-26T13:48:37.939Z,3.00
2023-08-26T13:51:07.138Z,3.47
2023-08-26T13:53:35.901Z,3.22
2023-08-26T13:56:05.105Z,2.65
2023-08-26T13:58:34.595Z,2.97
2023-08-26T14:01:05.175Z,3.10
2023-08-26T14:03:34.892Z,3.37
2023-08-26T14:06:08.092Z,3.12
2023-08-26T14:08:37.317Z,3.37
2023-08-26T14:11:06.176Z,2.90
2023-08-26T14:13:35.298Z,2.65
2023-08-26T14:16:04.898Z,2.95
2023-08-26T14:18:33.826Z,3.30
2023-08-26T14:21:03.219Z,3.08
2023-08-26T14:23:32.063Z,3.47
2023-08-26T14:26:02.644Z,4.12
2023-08-26T14:28:31.819Z,3.95
2023-08-26T14:31:01.790Z,3.97
2023-08-26T14:33:31.082Z,11.60
2023-08-26T14:36:02.745Z,14.25
2023-08-26T14:38:32.509Z,12.13
2023-08-26T14:41:01.643Z,6.03
2023-08-26T14:43:31.520Z,9.15
2023-08-26T14:46:01.226Z,6.50
2023-08-26T14:48:34.591Z,6.90
2023-08-26T14:51:04.425Z,5.10
2023-08-26T14:53:34.117Z,5.43
2023-08-26T14:56:06.414Z,5.72
2023-08-26T14:58:36.251Z,5.12
2023-08-26T15:01:05.890Z,4.18
2023-08-26T15:03:34.965Z,4.05
2023-08-26T15:06:07.918Z,4.87
2023-08-26T15:08:37.547Z,5.97
2023-08-26T15:11:06.601Z,5.05
2023-08-26T15:13:35.720Z,4.30
2023-08-26T15:16:05.738Z,4.05
2023-08-26T15:18:36.808Z,4.53
2023-08-26T15:21:05.839Z,3.85
2023-08-26T15:23:34.451Z,4.20
2023-08-26T15:26:04.396Z,3.87
2023-08-26T15:28:33.849Z,4.87
2023-08-26T15:31:02.613Z,3.45
2023-08-26T15:33:32.126Z,6.25
2023-08-26T15:36:01.357Z,5.57
2023-08-26T15:38:30.310Z,6.93
2023-08-26T15:41:00.753Z,5.03
2023-08-26T15:43:32.321Z,5.82
2023-08-26T15:46:01.816Z,5.35
2023-08-26T15:48:31.387Z,5.15
2023-08-26T15:51:00.430Z,5.20
2023-08-26T15:53:29.444Z,5.43
2023-08-26T15:55:58.935Z,4.62
2023-08-26T15:58:28.290Z,4.82
2023-08-26T16:00:57.488Z,4.85
2023-08-26T16:03:27.225Z,5.07
2023-08-26T16:06:02.287Z,10.00
2023-08-26T16:08:31.769Z,10.20
2023-08-26T16:11:00.744Z,8.38
2023-08-26T16:13:29.936Z,2.05
2023-08-26T16:15:59.653Z,7.00
2023-08-26T16:18:28.564Z,8.82
2023-08-26T16:20:57.595Z,8.25
2023-08-26T16:23:26.649Z,9.70
2023-08-26T16:25:55.578Z,7.93
2023-08-26T16:28:25.785Z,10.13
2023-08-26T16:30:55.180Z,8.00
2023-08-26T16:33:24.466Z,9.82
2023-08-26T16:35:53.972Z,5.80
2023-08-26T16:38:23.663Z,9.75
2023-08-26T16:40:56.247Z,8.38
2023-08-26T16:43:28.639Z,7.15
2023-08-26T16:45:57.817Z,4.65
2023-08-26T16:48:27.668Z,5.35
2023-08-26T16:50:58.847Z,5.87
2023-08-26T16:53:28.463Z,4.65
2023-08-26T16:55:57.264Z,8.60
2023-08-26T16:58:26.571Z,8.20
2023-08-26T17:00:56.098Z,9.73
2023-08-26T17:03:26.852Z,6.72
2023-08-26T17:05:59.930Z,8.95
2023-08-26T17:08:33.696Z,6.18
2023-08-26T17:11:15.428Z,9.65
2023-08-26T17:13:45.167Z,9.50
2023-08-26T17:16:17.466Z,12.30
2023-08-26T17:18:46.945Z,11.20
2023-08-26T17:21:17.466Z,8.52
2023-08-26T17:23:48.209Z,8.77
2023-08-26T17:26:20.971Z,9.63
2023-08-26T17:28:52.489Z,9.95
2023-08-26T17:31:21.661Z,8.50
2023-08-26T17:33:51.855Z,10.10
2023-08-26T17:36:24.454Z,9.88
2023-08-26T17:38:57.343Z,11.07
2023-08-26T17:41:27.813Z,11.35
2023-08-26T17:44:01.186Z,10.60
2023-08-26T17:49:02.212Z,11.65
2023-08-26T17:51:34.248Z,9.57
2023-08-26T17:54:04.278Z,9.65
2023-08-26T17:56:33.589Z,6.20
2023-08-26T17:59:09.581Z,10.10
2023-08-26T18:01:39.248Z,8.48
2023-08-26T18:04:09.775Z,6.65
2023-08-26T18:06:53.560Z,4.25
2023-08-26T18:09:24.117Z,10.57
2023-08-26T18:11:57.260Z,6.73
2023-08-26T18:14:28.075Z,5.37
2023-08-26T18:17:02.194Z,10.60
2023-08-26T18:19:37.972Z,8.82
2023-08-26T18:22:08.412Z,9.85
2023-08-26T18:24:45.972Z,8.95
2023-08-26T18:27:15.699Z,6.78
2023-08-26T18:29:46.527Z,9.18
2023-08-26T18:32:17.584Z,6.85
2023-08-26T18:34:47.772Z,7.80
2023-08-26T18:37:17.159Z,4.12
2023-08-26T18:39:50.724Z,4.35
2023-08-26T18:42:27.177Z,9.38
2023-08-26T18:44:57.541Z,9.07
2023-08-26T18:47:29.441Z,10.38
2023-08-26T18:49:59.726Z,8.05
2023-08-26T18:52:37.897Z,8.38
2023-08-26T18:55:15.149Z,10.45
2023-08-26T18:57:49.848Z,10.45
2023-08-26T19:00:23.285Z,11.32
2023-08-26T19:02:57.445Z,10.50
2023-08-26T19:05:29.023Z,10.80
2023-08-26T19:08:03.604Z,12.25
2023-08-26T19:10:34.891Z,11.25
2023-08-26T19:13:10.977Z,8.45
2023-08-26T19:15:44.865Z,12.10
2023-08-26T19:18:39.206Z,10.93
2023-08-26T19:21:09.797Z,12.02
2023-08-26T19:26:22.995Z,5.07
2023-08-26T19:28:55.815Z,10.60
2023-08-26T19:31:25.321Z,12.75
2023-08-26T19:33:55.312Z,7.37
2023-08-26T19:36:27.502Z,14.00
2023-08-26T19:38:58.879Z,14.95
2023-08-26T19:41:28.568Z,10.32
2023-08-26T19:43:58.637Z,10.27
2023-08-26T19:46:28.119Z,25.98
2023-08-26T19:48:58.303Z,30.98
2023-08-26T19:51:28.041Z,29.70
2023-08-26T19:53:59.666Z,30.40
2023-08-26T19:56:29.486Z,25.75
2023-08-26T19:59:00.029Z,25.35
2023-08-26T20:01:31.136Z,34.53
2023-08-26T20:04:00.891Z,26.70
2023-08-26T20:06:30.149Z,22.23
2023-08-26T20:08:59.396Z,23.87
2023-08-26T20:11:29.018Z,21.15
2023-08-26T20:13:58.979Z,28.70
2023-08-26T20:16:31.561Z,32.45
2023-08-26T20:19:00.626Z,25.90
2023-08-26T20:21:30.243Z,21.58
2023-08-26T20:24:01.588Z,24.98
2023-08-26T20:26:38.000Z,20.92
2023-08-26T20:29:09.975Z,21.65
2023-08-26T20:31:39.334Z,22.90
2023-08-26T20:34:07.625Z,21.02
2023-08-26T20:36:45.439Z,24.58
2023-08-26T20:39:14.842Z,21.25
2023-08-26T20:41:46.305Z,20.60
2023-08-26T20:44:14.826Z,19.02
2023-08-26T20:46:43.061Z,20.52
2023-08-26T20:49:17.495Z,20.73
2023-08-26T20:51:46.072Z,19.25
2023-08-26T20:54:14.404Z,23.45
2023-08-26T20:56:42.720Z,25.35
2023-08-26T20:59:11.221Z,21.25
2023-08-26T21:01:39.189Z,20.33
2023-08-26T21:04:07.871Z,22.42
2023-08-26T21:06:36.270Z,21.42
2023-08-26T21:09:05.857Z,23.70
2023-08-26T21:11:34.898Z,22.30
2023-08-26T21:14:03.653Z,20.08
2023-08-26T21:16:32.214Z,21.50
2023-08-26T21:19:01.081Z,21.12
2023-08-26T21:21:29.786Z,24.33
2023-08-26T21:24:01.104Z,18.85
2023-08-26T21:26:29.917Z,19.58
2023-08-26T21:28:58.234Z,17.60
2023-08-26T21:31:26.501Z,16.42
2023-08-26T21:33:54.946Z,18.85
2023-08-26T21:36:24.496Z,16.45
2023-08-26T21:38:52.982Z,15.45
2023-08-26T21:41:21.502Z,15.45
2023-08-26T21:43:49.515Z,18.05
2023-08-26T21:46:17.643Z,16.80
2023-08-26T21:48:46.127Z,18.17
2023-08-26T21:51:14.150Z,17.05
2023-08-26T21:53:42.190Z,16.00
2023-08-26T21:56:10.785Z,16.92
2023-08-26T21:58:38.633Z,14.45
2023-08-26T22:01:06.661Z,15.63
2023-08-26T22:03:34.855Z,15.80
2023-08-26T22:06:03.133Z,14.00
2023-08-26T22:08:31.212Z,13.73
2023-08-26T22:10:59.769Z,14.73
2023-08-26T22:13:28.248Z,14.27
2023-08-26T22:15:57.033Z,12.50
2023-08-26T22:18:26.277Z,13.48
2023-08-26T22:20:55.405Z,12.20
2023-08-26T22:23:25.129Z,13.55
2023-08-26T22:25:53.856Z,10.75
2023-08-26T22:28:47.509Z,13.05
2023-08-26T22:31:16.801Z,13.65
2023-08-26T22:33:44.615Z,16.58
2023-08-26T22:36:12.790Z,15.40
2023-08-26T22:38:41.065Z,15.68
2023-08-26T22:41:08.955Z,16.85
2023-08-26T22:43:36.887Z,20.37
2023-08-26T22:46:05.125Z,18.90
2023-08-26T22:48:32.957Z,16.30
2023-08-26T22:51:00.763Z,18.15
2023-08-26T22:53:28.947Z,16.95
2023-08-26T22:55:56.902Z,17.87
2023-08-26T22:58:24.720Z,18.98
2023-08-26T23:00:53.022Z,20.10
2023-08-26T23:03:21.194Z,19.73
2023-08-26T23:05:49.141Z,20.08
2023-08-26T23:08:17.649Z,20.17
2023-08-26T23:10:45.573Z,17.85
2023-08-26T23:13:13.364Z,19.95
2023-08-26T23:15:42.538Z,18.87
2023-08-26T23:18:10.592Z,21.23
2023-08-26T23:20:38.490Z,18.35
2023-08-26T23:23:06.930Z,21.20
2023-08-26T23:25:34.945Z,20.12
2023-08-26T23:28:02.812Z,18.98
2023-08-26T23:30:30.943Z,18.08
2023-08-26T23:32:59.200Z,17.33
2023-08-26T23:35:27.567Z,17.30
2023-08-26T23:37:55.906Z,17.25
2023-08-26T23:40:23.931Z,17.15
2023-08-26T23:42:51.945Z,18.62
2023-08-26T23:45:20.306Z,17.70
2023-08-26T23:47:48.315Z,17.52
2023-08-26T23:50:16.523Z,18.00
2023-08-26T23:52:44.826Z,17.02
2023-08-26T23:55:12.706Z,16.17
2023-08-26T23:57:40.620Z,14.40
